Flugplatz Bad Ditzenbach

Für EDPB sind keine METAR/TAF Berichte vorhanden.
Es werden die Flugwettermeldungen vom Flugplatz Stuttgart in 39 km Entfernung angezeigt.

Bericht für EDDS

vom 07.08. um 17:50 UTC

Wind 4 kt aus 110°

Sichtweite 10 km oder mehr

gute Sicht, keine Wolken < 5000 ft, keine CB, keine Wettererscheinungen (CAVOK)

Temperatur 29.0°C

Taupunkt 16.0°C

Luftfeuchtigkeit 45%

Luftdruck 1020 hPa

keine wesentliche Wetteränderung innerhalb den nächsten 2 Stunden zu erwarten

EDDS 071750Z 11004KT 050V170 CAVOK 29/16 Q1020 NOSIG

Prognose für EDDS

vom 07.08. um 17:00 UTC

Zwischen 18:00 UTC und 18:00 UTC

Wind 4 kt aus 80°

Sichtweite 10 km oder mehr

keine signifikanten Wettererscheinungen

keine Wolken

TAF EDDS 071700Z 0718/0818 08004KT CAVOK
Impressum